sensor_id;sensor_type;location;lat;lon;timestamp;P1;durP1;ratioP1;P2;durP2;ratioP2
55114;SDS011;41010;53.252;5.786;2023-02-05T00:02:28;30.65;;;6.28;;
55114;SDS011;41010;53.252;5.786;2023-02-05T00:04:55;46.67;;;7.38;;
55114;SDS011;41010;53.252;5.786;2023-02-05T00:07:22;46.75;;;6.95;;
55114;SDS011;41010;53.252;5.786;2023-02-05T00:09:49;39.83;;;7.18;;
55114;SDS011;41010;53.252;5.786;2023-02-05T00:12:17;42.05;;;7.43;;
55114;SDS011;41010;53.252;5.786;2023-02-05T00:14:44;37.33;;;7.13;;
55114;SDS011;41010;53.252;5.786;2023-02-05T00:17:11;41.78;;;7.25;;
55114;SDS011;41010;53.252;5.786;2023-02-05T00:19:40;39.08;;;8.27;;
55114;SDS011;41010;53.252;5.786;2023-02-05T00:22:07;34.40;;;7.00;;
55114;SDS011;41010;53.252;5.786;2023-02-05T00:24:34;46.25;;;8.02;;
55114;SDS011;41010;53.252;5.786;2023-02-05T00:27:01;40.15;;;7.20;;
55114;SDS011;41010;53.252;5.786;2023-02-05T00:29:29;37.80;;;8.95;;
55114;SDS011;41010;53.252;5.786;2023-02-05T00:31:56;42.58;;;8.68;;
55114;SDS011;41010;53.252;5.786;2023-02-05T00:34:23;36.75;;;7.28;;
55114;SDS011;41010;53.252;5.786;2023-02-05T00:36:52;44.65;;;8.30;;
55114;SDS011;41010;53.252;5.786;2023-02-05T00:39:19;55.10;;;9.13;;
55114;SDS011;41010;53.252;5.786;2023-02-05T00:41:46;42.22;;;8.15;;
55114;SDS011;41010;53.252;5.786;2023-02-05T00:44:13;44.03;;;7.80;;
55114;SDS011;41010;53.252;5.786;2023-02-05T00:46:41;37.33;;;8.05;;
55114;SDS011;41010;53.252;5.786;2023-02-05T00:49:08;54.50;;;8.30;;
55114;SDS011;41010;53.252;5.786;2023-02-05T00:51:35;44.70;;;9.35;;
55114;SDS011;41010;53.252;5.786;2023-02-05T00:54:04;43.30;;;8.75;;
55114;SDS011;41010;53.252;5.786;2023-02-05T00:56:31;41.78;;;8.43;;
55114;SDS011;41010;53.252;5.786;2023-02-05T00:58:58;46.38;;;8.68;;
55114;SDS011;41010;53.252;5.786;2023-02-05T01:01:26;51.88;;;8.85;;
55114;SDS011;41010;53.252;5.786;2023-02-05T01:03:54;42.03;;;8.13;;
55114;SDS011;41010;53.252;5.786;2023-02-05T01:06:21;32.20;;;8.02;;
55114;SDS011;41010;53.252;5.786;2023-02-05T01:08:48;45.15;;;7.78;;
55114;SDS011;41010;53.252;5.786;2023-02-05T01:11:17;49.72;;;8.48;;
55114;SDS011;41010;53.252;5.786;2023-02-05T01:13:45;35.42;;;8.23;;
55114;SDS011;41010;53.252;5.786;2023-02-05T01:16:12;42.58;;;8.60;;
55114;SDS011;41010;53.252;5.786;2023-02-05T01:18:39;46.60;;;9.90;;
55114;SDS011;41010;53.252;5.786;2023-02-05T01:21:06;61.42;;;11.27;;
55114;SDS011;41010;53.252;5.786;2023-02-05T01:23:34;50.22;;;10.27;;
55114;SDS011;41010;53.252;5.786;2023-02-05T01:26:01;53.25;;;10.70;;
55114;SDS011;41010;53.252;5.786;2023-02-05T01:28:30;43.42;;;9.75;;
55114;SDS011;41010;53.252;5.786;2023-02-05T01:30:57;56.13;;;11.85;;
55114;SDS011;41010;53.252;5.786;2023-02-05T01:33:24;53.17;;;11.57;;
55114;SDS011;41010;53.252;5.786;2023-02-05T01:35:51;59.92;;;13.38;;
55114;SDS011;41010;53.252;5.786;2023-02-05T01:38:18;61.47;;;12.88;;
55114;SDS011;41010;53.252;5.786;2023-02-05T01:40:46;78.63;;;14.90;;
55114;SDS011;41010;53.252;5.786;2023-02-05T01:43:13;65.93;;;15.40;;
55114;SDS011;41010;53.252;5.786;2023-02-05T01:45:47;61.38;;;14.70;;
55114;SDS011;41010;53.252;5.786;2023-02-05T01:48:16;54.55;;;15.88;;
55114;SDS011;41010;53.252;5.786;2023-02-05T01:50:45;57.80;;;16.05;;
55114;SDS011;41010;53.252;5.786;2023-02-05T01:53:12;61.75;;;16.17;;
55114;SDS011;41010;53.252;5.786;2023-02-05T01:55:42;55.90;;;15.18;;
55114;SDS011;41010;53.252;5.786;2023-02-05T01:58:10;72.80;;;16.67;;
55114;SDS011;41010;53.252;5.786;2023-02-05T02:00:37;53.67;;;16.85;;
55114;SDS011;41010;53.252;5.786;2023-02-05T02:03:06;56.22;;;17.25;;
55114;SDS011;41010;53.252;5.786;2023-02-05T02:05:33;65.50;;;17.05;;
55114;SDS011;41010;53.252;5.786;2023-02-05T02:08:00;62.13;;;16.88;;
55114;SDS011;41010;53.252;5.786;2023-02-05T02:10:28;61.60;;;17.63;;
55114;SDS011;41010;53.252;5.786;2023-02-05T02:12:55;63.78;;;17.38;;
55114;SDS011;41010;53.252;5.786;2023-02-05T02:15:24;65.47;;;17.75;;
55114;SDS011;41010;53.252;5.786;2023-02-05T02:17:52;62.83;;;17.65;;
55114;SDS011;41010;53.252;5.786;2023-02-05T02:20:22;62.08;;;17.23;;
55114;SDS011;41010;53.252;5.786;2023-02-05T02:22:56;56.83;;;17.67;;
55114;SDS011;41010;53.252;5.786;2023-02-05T02:25:28;56.75;;;16.50;;
55114;SDS011;41010;53.252;5.786;2023-02-05T02:28:02;61.08;;;18.23;;
55114;SDS011;41010;53.252;5.786;2023-02-05T02:30:30;60.72;;;17.95;;
55114;SDS011;41010;53.252;5.786;2023-02-05T02:33:02;55.28;;;17.60;;
55114;SDS011;41010;53.252;5.786;2023-02-05T02:35:32;63.72;;;18.08;;
55114;SDS011;41010;53.252;5.786;2023-02-05T02:38:02;53.63;;;16.05;;
55114;SDS011;41010;53.252;5.786;2023-02-05T02:40:34;49.80;;;18.27;;
55114;SDS011;41010;53.252;5.786;2023-02-05T02:43:04;61.90;;;18.45;;
55114;SDS011;41010;53.252;5.786;2023-02-05T02:45:33;59.58;;;17.80;;
55114;SDS011;41010;53.252;5.786;2023-02-05T02:48:00;62.85;;;18.48;;
55114;SDS011;41010;53.252;5.786;2023-02-05T02:50:29;51.47;;;17.00;;
55114;SDS011;41010;53.252;5.786;2023-02-05T02:52:59;57.05;;;17.35;;
55114;SDS011;41010;53.252;5.786;2023-02-05T02:55:28;55.05;;;17.98;;
55114;SDS011;41010;53.252;5.786;2023-02-05T02:57:55;45.58;;;17.25;;
55114;SDS011;41010;53.252;5.786;2023-02-05T03:00:24;48.63;;;17.15;;
55114;SDS011;41010;53.252;5.786;2023-02-05T03:02:55;49.25;;;17.70;;
55114;SDS011;41010;53.252;5.786;2023-02-05T03:05:24;53.95;;;16.70;;
55114;SDS011;41010;53.252;5.786;2023-02-05T03:07:51;41.80;;;17.73;;
55114;SDS011;41010;53.252;5.786;2023-02-05T03:10:22;45.42;;;15.38;;
55114;SDS011;41010;53.252;5.786;2023-02-05T03:12:50;39.13;;;13.90;;
55114;SDS011;41010;53.252;5.786;2023-02-05T03:15:18;39.17;;;14.25;;
55114;SDS011;41010;53.252;5.786;2023-02-05T03:17:46;46.47;;;14.50;;
55114;SDS011;41010;53.252;5.786;2023-02-05T03:20:15;35.50;;;12.82;;
55114;SDS011;41010;53.252;5.786;2023-02-05T03:22:43;37.58;;;13.02;;
55114;SDS011;41010;53.252;5.786;2023-02-05T03:25:10;37.35;;;11.85;;
55114;SDS011;41010;53.252;5.786;2023-02-05T03:27:37;37.63;;;12.18;;
55114;SDS011;41010;53.252;5.786;2023-02-05T03:30:05;32.60;;;10.43;;
55114;SDS011;41010;53.252;5.786;2023-02-05T03:32:35;35.78;;;9.35;;
55114;SDS011;41010;53.252;5.786;2023-02-05T03:35:11;34.83;;;9.18;;
55114;SDS011;41010;53.252;5.786;2023-02-05T03:37:43;20.60;;;7.63;;
55114;SDS011;41010;53.252;5.786;2023-02-05T03:40:15;31.20;;;8.07;;
55114;SDS011;41010;53.252;5.786;2023-02-05T03:42:45;22.30;;;7.45;;
55114;SDS011;41010;53.252;5.786;2023-02-05T03:45:26;22.05;;;6.50;;
55114;SDS011;41010;53.252;5.786;2023-02-05T03:50:42;23.98;;;7.13;;
55114;SDS011;41010;53.252;5.786;2023-02-05T03:53:11;27.65;;;6.97;;
55114;SDS011;41010;53.252;5.786;2023-02-05T03:55:41;30.23;;;7.32;;
55114;SDS011;41010;53.252;5.786;2023-02-05T03:58:12;22.30;;;6.90;;
55114;SDS011;41010;53.252;5.786;2023-02-05T04:00:40;26.40;;;6.68;;
55114;SDS011;41010;53.252;5.786;2023-02-05T04:03:08;24.38;;;7.53;;
55114;SDS011;41010;53.252;5.786;2023-02-05T04:05:36;23.58;;;7.60;;
55114;SDS011;41010;53.252;5.786;2023-02-05T04:08:05;26.85;;;8.27;;
55114;SDS011;41010;53.252;5.786;2023-02-05T04:10:32;24.92;;;7.07;;
55114;SDS011;41010;53.252;5.786;2023-02-05T04:12:59;18.63;;;7.18;;
55114;SDS011;41010;53.252;5.786;2023-02-05T04:15:26;19.58;;;6.50;;
55114;SDS011;41010;53.252;5.786;2023-02-05T04:17:53;23.25;;;7.47;;
55114;SDS011;41010;53.252;5.786;2023-02-05T04:20:22;19.67;;;6.28;;
55114;SDS011;41010;53.252;5.786;2023-02-05T04:22:49;16.52;;;4.20;;
55114;SDS011;41010;53.252;5.786;2023-02-05T04:25:17;22.42;;;3.75;;
55114;SDS011;41010;53.252;5.786;2023-02-05T04:27:45;20.67;;;2.47;;
55114;SDS011;41010;53.252;5.786;2023-02-05T04:30:13;30.13;;;2.83;;
55114;SDS011;41010;53.252;5.786;2023-02-05T04:32:40;24.70;;;2.00;;
55114;SDS011;41010;53.252;5.786;2023-02-05T04:35:07;29.05;;;3.35;;
55114;SDS011;41010;53.252;5.786;2023-02-05T04:37:34;25.85;;;2.33;;
55114;SDS011;41010;53.252;5.786;2023-02-05T04:40:02;26.85;;;2.70;;
55114;SDS011;41010;53.252;5.786;2023-02-05T04:42:30;34.55;;;3.10;;
55114;SDS011;41010;53.252;5.786;2023-02-05T04:44:58;29.67;;;2.63;;
55114;SDS011;41010;53.252;5.786;2023-02-05T04:47:25;35.08;;;2.80;;
55114;SDS011;41010;53.252;5.786;2023-02-05T04:49:52;22.20;;;2.28;;
55114;SDS011;41010;53.252;5.786;2023-02-05T04:52:19;19.15;;;2.47;;
55114;SDS011;41010;53.252;5.786;2023-02-05T04:54:47;25.92;;;2.70;;
55114;SDS011;41010;53.252;5.786;2023-02-05T04:57:14;20.05;;;2.00;;
55114;SDS011;41010;53.252;5.786;2023-02-05T04:59:42;30.02;;;2.05;;
55114;SDS011;41010;53.252;5.786;2023-02-05T05:02:10;15.93;;;1.67;;
55114;SDS011;41010;53.252;5.786;2023-02-05T05:04:37;27.67;;;2.75;;
55114;SDS011;41010;53.252;5.786;2023-02-05T05:07:04;18.50;;;1.60;;
55114;SDS011;41010;53.252;5.786;2023-02-05T05:09:32;16.88;;;1.50;;
55114;SDS011;41010;53.252;5.786;2023-02-05T05:11:59;12.93;;;1.27;;
55114;SDS011;41010;53.252;5.786;2023-02-05T05:14:26;14.68;;;1.45;;
55114;SDS011;41010;53.252;5.786;2023-02-05T05:16:55;28.58;;;1.80;;
55114;SDS011;41010;53.252;5.786;2023-02-05T05:19:22;23.90;;;1.92;;
55114;SDS011;41010;53.252;5.786;2023-02-05T05:21:49;25.88;;;2.17;;
55114;SDS011;41010;53.252;5.786;2023-02-05T05:24:17;17.50;;;2.15;;
55114;SDS011;41010;53.252;5.786;2023-02-05T05:26:44;27.65;;;2.60;;
55114;SDS011;41010;53.252;5.786;2023-02-05T05:29:11;21.52;;;2.70;;
55114;SDS011;41010;53.252;5.786;2023-02-05T05:31:39;17.30;;;2.20;;
55114;SDS011;41010;53.252;5.786;2023-02-05T05:34:08;22.83;;;1.92;;
55114;SDS011;41010;53.252;5.786;2023-02-05T05:36:35;23.17;;;2.25;;
55114;SDS011;41010;53.252;5.786;2023-02-05T05:39:04;21.50;;;2.85;;
55114;SDS011;41010;53.252;5.786;2023-02-05T05:41:45;16.33;;;1.63;;
55114;SDS011;41010;53.252;5.786;2023-02-05T05:44:30;20.52;;;1.90;;
55114;SDS011;41010;53.252;5.786;2023-02-05T05:46:57;18.17;;;2.63;;
55114;SDS011;41010;53.252;5.786;2023-02-05T05:49:26;24.73;;;2.67;;
55114;SDS011;41010;53.252;5.786;2023-02-05T05:51:53;34.33;;;8.32;;
55114;SDS011;41010;53.252;5.786;2023-02-05T05:54:20;35.83;;;7.35;;
55114;SDS011;41010;53.252;5.786;2023-02-05T05:56:47;20.42;;;3.80;;
55114;SDS011;41010;53.252;5.786;2023-02-05T05:59:15;22.85;;;4.43;;
55114;SDS011;41010;53.252;5.786;2023-02-05T06:01:42;24.88;;;4.50;;
55114;SDS011;41010;53.252;5.786;2023-02-05T06:04:09;30.38;;;2.60;;
55114;SDS011;41010;53.252;5.786;2023-02-05T06:06:38;27.40;;;3.15;;
55114;SDS011;41010;53.252;5.786;2023-02-05T06:09:05;23.85;;;3.45;;
55114;SDS011;41010;53.252;5.786;2023-02-05T06:11:33;40.50;;;4.80;;
55114;SDS011;41010;53.252;5.786;2023-02-05T06:14:00;21.25;;;2.78;;
55114;SDS011;41010;53.252;5.786;2023-02-05T06:16:27;24.67;;;3.05;;
55114;SDS011;41010;53.252;5.786;2023-02-05T06:18:54;28.80;;;2.83;;
55114;SDS011;41010;53.252;5.786;2023-02-05T06:21:22;21.38;;;3.80;;
55114;SDS011;41010;53.252;5.786;2023-02-05T06:23:50;24.77;;;4.13;;
55114;SDS011;41010;53.252;5.786;2023-02-05T06:26:17;24.73;;;2.78;;
55114;SDS011;41010;53.252;5.786;2023-02-05T06:28:45;19.00;;;1.92;;
55114;SDS011;41010;53.252;5.786;2023-02-05T06:31:12;26.90;;;2.75;;
55114;SDS011;41010;53.252;5.786;2023-02-05T06:33:39;33.08;;;2.80;;
55114;SDS011;41010;53.252;5.786;2023-02-05T06:36:06;20.92;;;1.92;;
55114;SDS011;41010;53.252;5.786;2023-02-05T06:38:34;26.83;;;4.68;;
55114;SDS011;41010;53.252;5.786;2023-02-05T06:41:02;24.38;;;2.78;;
55114;SDS011;41010;53.252;5.786;2023-02-05T06:43:30;18.17;;;2.10;;
55114;SDS011;41010;53.252;5.786;2023-02-05T06:45:57;25.65;;;2.30;;
55114;SDS011;41010;53.252;5.786;2023-02-05T06:48:24;24.85;;;2.10;;
55114;SDS011;41010;53.252;5.786;2023-02-05T06:50:51;27.42;;;2.55;;
55114;SDS011;41010;53.252;5.786;2023-02-05T06:53:19;25.35;;;2.28;;
55114;SDS011;41010;53.252;5.786;2023-02-05T06:55:46;22.50;;;2.15;;
55114;SDS011;41010;53.252;5.786;2023-02-05T06:58:14;14.88;;;2.08;;
55114;SDS011;41010;53.252;5.786;2023-02-05T07:00:42;24.88;;;2.40;;
55114;SDS011;41010;53.252;5.786;2023-02-05T07:03:09;28.25;;;3.28;;
55114;SDS011;41010;53.252;5.786;2023-02-05T07:05:36;16.98;;;1.88;;
55114;SDS011;41010;53.252;5.786;2023-02-05T07:08:04;18.95;;;2.13;;
55114;SDS011;41010;53.252;5.786;2023-02-05T07:10:31;23.08;;;1.90;;
55114;SDS011;41010;53.252;5.786;2023-02-05T07:12:58;18.20;;;2.33;;
55114;SDS011;41010;53.252;5.786;2023-02-05T07:15:27;20.30;;;2.38;;
55114;SDS011;41010;53.252;5.786;2023-02-05T07:17:54;30.05;;;3.22;;
55114;SDS011;41010;53.252;5.786;2023-02-05T07:20:22;18.38;;;2.45;;
55114;SDS011;41010;53.252;5.786;2023-02-05T07:22:49;21.77;;;2.47;;
55114;SDS011;41010;53.252;5.786;2023-02-05T07:25:17;31.75;;;2.55;;
55114;SDS011;41010;53.252;5.786;2023-02-05T07:27:44;22.80;;;2.53;;
55114;SDS011;41010;53.252;5.786;2023-02-05T07:30:12;23.48;;;2.72;;
55114;SDS011;41010;53.252;5.786;2023-02-05T07:32:40;31.10;;;2.80;;
55114;SDS011;41010;53.252;5.786;2023-02-05T07:35:07;23.05;;;2.75;;
55114;SDS011;41010;53.252;5.786;2023-02-05T07:37:35;24.92;;;3.00;;
55114;SDS011;41010;53.252;5.786;2023-02-05T07:40:03;35.28;;;4.55;;
55114;SDS011;41010;53.252;5.786;2023-02-05T07:42:31;34.08;;;2.90;;
55114;SDS011;41010;53.252;5.786;2023-02-05T07:44:58;40.85;;;3.92;;
55114;SDS011;41010;53.252;5.786;2023-02-05T07:47:25;33.28;;;3.50;;
55114;SDS011;41010;53.252;5.786;2023-02-05T07:49:54;38.95;;;4.55;;
55114;SDS011;41010;53.252;5.786;2023-02-05T07:52:21;36.08;;;3.05;;
55114;SDS011;41010;53.252;5.786;2023-02-05T07:54:48;39.65;;;4.47;;
55114;SDS011;41010;53.252;5.786;2023-02-05T07:57:15;34.13;;;3.92;;
55114;SDS011;41010;53.252;5.786;2023-02-05T07:59:43;34.15;;;3.90;;
55114;SDS011;41010;53.252;5.786;2023-02-05T08:02:10;38.20;;;4.38;;
55114;SDS011;41010;53.252;5.786;2023-02-05T08:04:37;40.45;;;4.97;;
55114;SDS011;41010;53.252;5.786;2023-02-05T08:07:06;37.03;;;5.47;;
55114;SDS011;41010;53.252;5.786;2023-02-05T08:09:34;36.85;;;5.20;;
55114;SDS011;41010;53.252;5.786;2023-02-05T08:12:01;80.70;;;18.23;;
55114;SDS011;41010;53.252;5.786;2023-02-05T08:14:29;41.25;;;5.20;;
55114;SDS011;41010;53.252;5.786;2023-02-05T08:16:56;33.50;;;5.15;;
55114;SDS011;41010;53.252;5.786;2023-02-05T08:19:24;49.33;;;5.25;;
55114;SDS011;41010;53.252;5.786;2023-02-05T08:21:51;36.90;;;4.10;;
55114;SDS011;41010;53.252;5.786;2023-02-05T08:24:20;49.83;;;5.63;;
55114;SDS011;41010;53.252;5.786;2023-02-05T08:26:47;37.72;;;5.00;;
55114;SDS011;41010;53.252;5.786;2023-02-05T08:29:14;39.55;;;4.10;;
55114;SDS011;41010;53.252;5.786;2023-02-05T08:31:42;44.88;;;4.97;;
55114;SDS011;41010;53.252;5.786;2023-02-05T08:34:09;35.97;;;4.57;;
55114;SDS011;41010;53.252;5.786;2023-02-05T08:36:36;34.22;;;4.40;;
55114;SDS011;41010;53.252;5.786;2023-02-05T08:39:04;38.20;;;4.53;;
55114;SDS011;41010;53.252;5.786;2023-02-05T08:41:32;37.83;;;4.60;;
55114;SDS011;41010;53.252;5.786;2023-02-05T08:44:00;31.85;;;4.63;;
55114;SDS011;41010;53.252;5.786;2023-02-05T08:46:27;30.20;;;3.97;;
55114;SDS011;41010;53.252;5.786;2023-02-05T08:48:54;41.42;;;4.45;;
55114;SDS011;41010;53.252;5.786;2023-02-05T08:51:21;34.22;;;4.57;;
55114;SDS011;41010;53.252;5.786;2023-02-05T08:53:49;46.92;;;6.47;;
55114;SDS011;41010;53.252;5.786;2023-02-05T08:56:17;40.90;;;4.50;;
55114;SDS011;41010;53.252;5.786;2023-02-05T08:58:46;52.53;;;5.78;;
55114;SDS011;41010;53.252;5.786;2023-02-05T09:01:13;52.63;;;5.05;;
55114;SDS011;41010;53.252;5.786;2023-02-05T09:03:41;41.90;;;5.35;;
55114;SDS011;41010;53.252;5.786;2023-02-05T09:06:09;47.65;;;4.82;;
55114;SDS011;41010;53.252;5.786;2023-02-05T09:08:36;48.00;;;5.40;;
55114;SDS011;41010;53.252;5.786;2023-02-05T09:11:04;52.00;;;6.15;;
55114;SDS011;41010;53.252;5.786;2023-02-05T09:13:31;57.72;;;7.03;;
55114;SDS011;41010;53.252;5.786;2023-02-05T09:16:00;59.97;;;7.68;;
55114;SDS011;41010;53.252;5.786;2023-02-05T09:18:27;57.28;;;8.63;;
55114;SDS011;41010;53.252;5.786;2023-02-05T09:20:55;42.50;;;5.55;;
55114;SDS011;41010;53.252;5.786;2023-02-05T09:23:22;57.10;;;6.85;;
55114;SDS011;41010;53.252;5.786;2023-02-05T09:25:49;56.90;;;6.95;;
55114;SDS011;41010;53.252;5.786;2023-02-05T09:28:16;52.05;;;6.07;;
55114;SDS011;41010;53.252;5.786;2023-02-05T09:30:44;60.03;;;6.53;;
55114;SDS011;41010;53.252;5.786;2023-02-05T09:33:13;49.78;;;5.97;;
55114;SDS011;41010;53.252;5.786;2023-02-05T09:35:40;49.22;;;5.40;;
55114;SDS011;41010;53.252;5.786;2023-02-05T09:38:08;49.65;;;6.25;;
55114;SDS011;41010;53.252;5.786;2023-02-05T09:40:37;47.25;;;5.68;;
55114;SDS011;41010;53.252;5.786;2023-02-05T09:43:09;57.60;;;8.55;;
55114;SDS011;41010;53.252;5.786;2023-02-05T09:45:47;45.83;;;6.78;;
55114;SDS011;41010;53.252;5.786;2023-02-05T09:48:32;52.47;;;7.15;;
55114;SDS011;41010;53.252;5.786;2023-02-05T09:51:04;48.20;;;6.43;;
55114;SDS011;41010;53.252;5.786;2023-02-05T09:53:33;44.38;;;6.38;;
55114;SDS011;41010;53.252;5.786;2023-02-05T09:56:01;49.90;;;6.47;;
55114;SDS011;41010;53.252;5.786;2023-02-05T09:58:30;39.05;;;5.38;;
55114;SDS011;41010;53.252;5.786;2023-02-05T10:01:03;46.17;;;5.30;;
55114;SDS011;41010;53.252;5.786;2023-02-05T10:03:33;36.72;;;4.68;;
55114;SDS011;41010;53.252;5.786;2023-02-05T10:06:08;41.13;;;6.10;;
55114;SDS011;41010;53.252;5.786;2023-02-05T10:08:39;44.80;;;6.00;;
55114;SDS011;41010;53.252;5.786;2023-02-05T10:11:09;30.65;;;4.50;;
55114;SDS011;41010;53.252;5.786;2023-02-05T10:13:40;37.93;;;4.47;;
55114;SDS011;41010;53.252;5.786;2023-02-05T10:18:58;40.55;;;5.28;;
55114;SDS011;41010;53.252;5.786;2023-02-05T10:21:43;42.10;;;5.43;;
55114;SDS011;41010;53.252;5.786;2023-02-05T10:24:21;41.35;;;6.10;;
55114;SDS011;41010;53.252;5.786;2023-02-05T10:26:52;35.83;;;4.80;;
55114;SDS011;41010;53.252;5.786;2023-02-05T10:29:25;35.85;;;4.60;;
55114;SDS011;41010;53.252;5.786;2023-02-05T10:31:58;33.85;;;4.60;;
55114;SDS011;41010;53.252;5.786;2023-02-05T10:34:34;45.03;;;6.05;;
55114;SDS011;41010;53.252;5.786;2023-02-05T10:37:05;37.38;;;4.68;;
55114;SDS011;41010;53.252;5.786;2023-02-05T10:39:36;33.10;;;5.22;;
55114;SDS011;41010;53.252;5.786;2023-02-05T10:42:04;41.72;;;4.60;;
55114;SDS011;41010;53.252;5.786;2023-02-05T10:44:36;33.92;;;4.45;;
55114;SDS011;41010;53.252;5.786;2023-02-05T10:47:05;32.28;;;4.32;;
55114;SDS011;41010;53.252;5.786;2023-02-05T10:49:39;43.33;;;5.25;;
55114;SDS011;41010;53.252;5.786;2023-02-05T10:52:09;37.92;;;4.82;;
55114;SDS011;41010;53.252;5.786;2023-02-05T10:54:37;40.70;;;4.70;;
55114;SDS011;41010;53.252;5.786;2023-02-05T10:57:08;39.75;;;5.70;;
55114;SDS011;41010;53.252;5.786;2023-02-05T10:59:38;31.38;;;4.93;;
55114;SDS011;41010;53.252;5.786;2023-02-05T11:02:07;38.53;;;5.32;;
55114;SDS011;41010;53.252;5.786;2023-02-05T11:04:40;41.45;;;5.03;;
55114;SDS011;41010;53.252;5.786;2023-02-05T11:07:08;38.58;;;5.30;;
55114;SDS011;41010;53.252;5.786;2023-02-05T11:09:37;33.58;;;4.57;;
55114;SDS011;41010;53.252;5.786;2023-02-05T11:12:05;37.63;;;4.32;;
55114;SDS011;41010;53.252;5.786;2023-02-05T11:14:34;39.50;;;5.05;;
55114;SDS011;41010;53.252;5.786;2023-02-05T11:17:04;41.35;;;5.43;;
55114;SDS011;41010;53.252;5.786;2023-02-05T11:19:33;37.65;;;4.40;;
55114;SDS011;41010;53.252;5.786;2023-02-05T11:22:03;43.17;;;5.75;;
55114;SDS011;41010;53.252;5.786;2023-02-05T11:24:31;39.13;;;4.55;;
55114;SDS011;41010;53.252;5.786;2023-02-05T11:29:44;40.80;;;4.50;;
55114;SDS011;41010;53.252;5.786;2023-02-05T11:32:16;33.90;;;4.95;;
55114;SDS011;41010;53.252;5.786;2023-02-05T11:34:44;29.17;;;4.03;;
55114;SDS011;41010;53.252;5.786;2023-02-05T11:37:14;41.25;;;5.30;;
55114;SDS011;41010;53.252;5.786;2023-02-05T11:39:42;42.88;;;5.15;;
55114;SDS011;41010;53.252;5.786;2023-02-05T11:42:15;48.53;;;5.65;;
55114;SDS011;41010;53.252;5.786;2023-02-05T11:44:45;39.83;;;5.73;;
55114;SDS011;41010;53.252;5.786;2023-02-05T11:47:17;37.83;;;4.95;;
55114;SDS011;41010;53.252;5.786;2023-02-05T11:49:48;47.30;;;5.30;;
55114;SDS011;41010;53.252;5.786;2023-02-05T11:52:21;41.05;;;4.93;;
55114;SDS011;41010;53.252;5.786;2023-02-05T11:54:50;40.95;;;5.88;;
55114;SDS011;41010;53.252;5.786;2023-02-05T11:57:31;39.80;;;4.97;;
55114;SDS011;41010;53.252;5.786;2023-02-05T12:00:00;39.40;;;5.07;;
55114;SDS011;41010;53.252;5.786;2023-02-05T12:02:29;38.10;;;5.57;;
55114;SDS011;41010;53.252;5.786;2023-02-05T12:04:57;36.90;;;5.05;;
55114;SDS011;41010;53.252;5.786;2023-02-05T12:07:26;38.95;;;5.70;;
55114;SDS011;41010;53.252;5.786;2023-02-05T12:09:55;38.13;;;4.70;;
55114;SDS011;41010;53.252;5.786;2023-02-05T12:12:25;38.25;;;5.00;;
55114;SDS011;41010;53.252;5.786;2023-02-05T12:17:32;36.78;;;4.60;;
55114;SDS011;41010;53.252;5.786;2023-02-05T12:22:55;41.72;;;5.00;;
55114;SDS011;41010;53.252;5.786;2023-02-05T12:25:23;48.78;;;5.85;;
55114;SDS011;41010;53.252;5.786;2023-02-05T12:27:56;40.42;;;5.82;;
55114;SDS011;41010;53.252;5.786;2023-02-05T12:30:30;33.78;;;4.85;;
55114;SDS011;41010;53.252;5.786;2023-02-05T12:33:04;39.50;;;5.25;;
55114;SDS011;41010;53.252;5.786;2023-02-05T12:35:44;46.60;;;6.15;;
55114;SDS011;41010;53.252;5.786;2023-02-05T12:38:17;38.67;;;5.57;;
55114;SDS011;41010;53.252;5.786;2023-02-05T12:40:52;40.85;;;5.07;;
55114;SDS011;41010;53.252;5.786;2023-02-05T12:43:26;37.67;;;5.43;;
55114;SDS011;41010;53.252;5.786;2023-02-05T12:45:56;43.38;;;5.85;;
55114;SDS011;41010;53.252;5.786;2023-02-05T12:48:32;39.38;;;5.53;;
55114;SDS011;41010;53.252;5.786;2023-02-05T12:51:08;43.03;;;6.18;;
55114;SDS011;41010;53.252;5.786;2023-02-05T12:53:45;49.25;;;5.72;;
55114;SDS011;41010;53.252;5.786;2023-02-05T12:58:59;36.78;;;5.35;;
55114;SDS011;41010;53.252;5.786;2023-02-05T13:01:30;36.72;;;5.50;;
55114;SDS011;41010;53.252;5.786;2023-02-05T13:03:59;40.03;;;5.23;;
55114;SDS011;41010;53.252;5.786;2023-02-05T13:06:29;40.10;;;5.68;;
55114;SDS011;41010;53.252;5.786;2023-02-05T13:09:00;37.33;;;5.85;;
55114;SDS011;41010;53.252;5.786;2023-02-05T13:11:29;39.17;;;5.28;;
55114;SDS011;41010;53.252;5.786;2023-02-05T13:13:59;37.58;;;6.53;;
55114;SDS011;41010;53.252;5.786;2023-02-05T13:16:29;42.92;;;6.28;;
55114;SDS011;41010;53.252;5.786;2023-02-05T13:19:01;42.20;;;5.70;;
55114;SDS011;41010;53.252;5.786;2023-02-05T13:21:32;33.80;;;6.10;;
55114;SDS011;41010;53.252;5.786;2023-02-05T13:24:24;43.17;;;6.60;;
55114;SDS011;41010;53.252;5.786;2023-02-05T13:27:15;51.47;;;7.80;;
55114;SDS011;41010;53.252;5.786;2023-02-05T13:30:02;39.92;;;5.70;;
55114;SDS011;41010;53.252;5.786;2023-02-05T13:32:30;50.08;;;5.72;;
55114;SDS011;41010;53.252;5.786;2023-02-05T13:34:58;42.85;;;6.25;;
55114;SDS011;41010;53.252;5.786;2023-02-05T13:37:33;50.42;;;8.07;;
55114;SDS011;41010;53.252;5.786;2023-02-05T13:43:03;47.45;;;6.53;;
55114;SDS011;41010;53.252;5.786;2023-02-05T13:45:45;52.58;;;6.30;;
55114;SDS011;41010;53.252;5.786;2023-02-05T13:51:19;48.53;;;7.03;;
55114;SDS011;41010;53.252;5.786;2023-02-05T13:56:36;47.30;;;7.85;;
55114;SDS011;41010;53.252;5.786;2023-02-05T13:59:10;45.83;;;6.25;;
55114;SDS011;41010;53.252;5.786;2023-02-05T14:01:40;47.57;;;6.30;;
55114;SDS011;41010;53.252;5.786;2023-02-05T14:04:15;45.30;;;5.93;;
55114;SDS011;41010;53.252;5.786;2023-02-05T14:06:45;39.35;;;5.95;;
55114;SDS011;41010;53.252;5.786;2023-02-05T14:09:18;48.00;;;6.22;;
55114;SDS011;41010;53.252;5.786;2023-02-05T14:11:50;46.60;;;6.82;;
55114;SDS011;41010;53.252;5.786;2023-02-05T14:14:27;41.13;;;6.40;;
55114;SDS011;41010;53.252;5.786;2023-02-05T14:16:55;39.80;;;6.43;;
55114;SDS011;41010;53.252;5.786;2023-02-05T14:19:24;47.20;;;6.47;;
55114;SDS011;41010;53.252;5.786;2023-02-05T14:24:41;50.10;;;6.50;;
55114;SDS011;41010;53.252;5.786;2023-02-05T14:32:58;37.20;;;7.20;;
55114;SDS011;41010;53.252;5.786;2023-02-05T14:35:27;43.97;;;6.40;;
55114;SDS011;41010;53.252;5.786;2023-02-05T14:37:55;47.53;;;7.30;;
55114;SDS011;41010;53.252;5.786;2023-02-05T14:40:25;39.10;;;6.38;;
55114;SDS011;41010;53.252;5.786;2023-02-05T14:42:55;40.22;;;5.70;;
55114;SDS011;41010;53.252;5.786;2023-02-05T14:45:23;42.92;;;6.35;;
55114;SDS011;41010;53.252;5.786;2023-02-05T14:47:52;42.35;;;7.22;;
55114;SDS011;41010;53.252;5.786;2023-02-05T14:50:21;50.72;;;12.50;;
55114;SDS011;41010;53.252;5.786;2023-02-05T14:52:51;45.95;;;7.28;;
55114;SDS011;41010;53.252;5.786;2023-02-05T14:55:19;57.95;;;9.73;;
55114;SDS011;41010;53.252;5.786;2023-02-05T14:57:48;61.92;;;11.35;;
55114;SDS011;41010;53.252;5.786;2023-02-05T15:00:21;49.05;;;7.40;;
55114;SDS011;41010;53.252;5.786;2023-02-05T15:05:17;43.65;;;6.40;;
55114;SDS011;41010;53.252;5.786;2023-02-05T15:07:47;40.25;;;5.45;;
55114;SDS011;41010;53.252;5.786;2023-02-05T15:10:18;44.50;;;6.60;;
55114;SDS011;41010;53.252;5.786;2023-02-05T15:13:00;49.10;;;6.78;;
55114;SDS011;41010;53.252;5.786;2023-02-05T15:15:29;43.83;;;5.60;;
55114;SDS011;41010;53.252;5.786;2023-02-05T15:18:00;44.55;;;6.63;;
55114;SDS011;41010;53.252;5.786;2023-02-05T15:20:29;43.00;;;5.90;;
55114;SDS011;41010;53.252;5.786;2023-02-05T15:25:42;46.08;;;5.20;;